sensor_id;sensor_type;location;lat;lon;timestamp;temperature;humidity
25753;DHT22;13600;50.816;4.416;2023-03-13T00:00:49;11.70;99.90
25753;DHT22;13600;50.816;4.416;2023-03-13T00:03:15;11.70;99.90
25753;DHT22;13600;50.816;4.416;2023-03-13T00:05:41;11.70;99.90
25753;DHT22;13600;50.816;4.416;2023-03-13T00:08:07;11.80;99.90
25753;DHT22;13600;50.816;4.416;2023-03-13T00:10:35;11.80;99.90
25753;DHT22;13600;50.816;4.416;2023-03-13T00:13:01;11.80;99.90
25753;DHT22;13600;50.816;4.416;2023-03-13T00:15:26;11.80;99.90
25753;DHT22;13600;50.816;4.416;2023-03-13T00:17:52;11.80;99.90
25753;DHT22;13600;50.816;4.416;2023-03-13T00:20:17;11.80;99.90
25753;DHT22;13600;50.816;4.416;2023-03-13T00:22:43;11.90;99.90
25753;DHT22;13600;50.816;4.416;2023-03-13T00:25:09;11.90;99.90
25753;DHT22;13600;50.816;4.416;2023-03-13T00:27:35;11.90;99.90
25753;DHT22;13600;50.816;4.416;2023-03-13T00:30:00;11.90;99.90
25753;DHT22;13600;50.816;4.416;2023-03-13T00:32:26;12.00;99.90
25753;DHT22;13600;50.816;4.416;2023-03-13T00:34:51;11.90;99.90
25753;DHT22;13600;50.816;4.416;2023-03-13T00:37:17;11.90;99.90
25753;DHT22;13600;50.816;4.416;2023-03-13T00:39:42;11.90;99.90
25753;DHT22;13600;50.816;4.416;2023-03-13T00:42:09;11.90;99.90
25753;DHT22;13600;50.816;4.416;2023-03-13T00:44:34;11.90;99.90
25753;DHT22;13600;50.816;4.416;2023-03-13T00:47:00;11.80;99.90
25753;DHT22;13600;50.816;4.416;2023-03-13T00:49:25;11.80;99.90
25753;DHT22;13600;50.816;4.416;2023-03-13T00:51:51;11.90;99.90
25753;DHT22;13600;50.816;4.416;2023-03-13T00:54:17;11.90;99.90
25753;DHT22;13600;50.816;4.416;2023-03-13T00:56:43;12.00;99.90
25753;DHT22;13600;50.816;4.416;2023-03-13T00:59:08;12.00;99.90
25753;DHT22;13600;50.816;4.416;2023-03-13T01:01:34;11.90;99.90
25753;DHT22;13600;50.816;4.416;2023-03-13T01:04:01;11.90;99.90
25753;DHT22;13600;50.816;4.416;2023-03-13T01:06:28;11.90;99.90
25753;DHT22;13600;50.816;4.416;2023-03-13T01:08:54;12.00;99.90
25753;DHT22;13600;50.816;4.416;2023-03-13T01:11:21;12.10;99.90
25753;DHT22;13600;50.816;4.416;2023-03-13T01:13:47;12.20;99.90
25753;DHT22;13600;50.816;4.416;2023-03-13T01:16:14;12.10;99.90
25753;DHT22;13600;50.816;4.416;2023-03-13T01:18:42;12.00;99.90
25753;DHT22;13600;50.816;4.416;2023-03-13T01:21:08;12.10;99.90
25753;DHT22;13600;50.816;4.416;2023-03-13T01:23:34;12.00;99.90
25753;DHT22;13600;50.816;4.416;2023-03-13T01:26:00;12.10;99.90
25753;DHT22;13600;50.816;4.416;2023-03-13T01:28:26;12.00;99.90
25753;DHT22;13600;50.816;4.416;2023-03-13T01:30:51;12.00;99.90
25753;DHT22;13600;50.816;4.416;2023-03-13T01:33:17;12.10;99.90
25753;DHT22;13600;50.816;4.416;2023-03-13T01:35:43;12.20;99.90
25753;DHT22;13600;50.816;4.416;2023-03-13T01:38:08;12.30;99.90
25753;DHT22;13600;50.816;4.416;2023-03-13T01:40:41;12.30;99.90
25753;DHT22;13600;50.816;4.416;2023-03-13T01:43:18;12.20;99.90
25753;DHT22;13600;50.816;4.416;2023-03-13T01:53:49;12.30;99.90
25753;DHT22;13600;50.816;4.416;2023-03-13T01:56:17;12.30;99.90
25753;DHT22;13600;50.816;4.416;2023-03-13T01:58:44;12.40;99.90
25753;DHT22;13600;50.816;4.416;2023-03-13T02:01:11;12.50;99.90
25753;DHT22;13600;50.816;4.416;2023-03-13T02:03:37;12.50;99.90
25753;DHT22;13600;50.816;4.416;2023-03-13T02:06:03;12.40;99.90
25753;DHT22;13600;50.816;4.416;2023-03-13T02:08:34;12.50;99.90
25753;DHT22;13600;50.816;4.416;2023-03-13T02:11:07;12.50;99.90
25753;DHT22;13600;50.816;4.416;2023-03-13T02:13:34;12.60;99.90
25753;DHT22;13600;50.816;4.416;2023-03-13T02:16:00;12.60;99.90
25753;DHT22;13600;50.816;4.416;2023-03-13T02:18:27;12.50;99.90
25753;DHT22;13600;50.816;4.416;2023-03-13T02:20:54;12.60;99.90
25753;DHT22;13600;50.816;4.416;2023-03-13T02:23:33;12.50;99.90
25753;DHT22;13600;50.816;4.416;2023-03-13T02:26:00;12.60;99.90
25753;DHT22;13600;50.816;4.416;2023-03-13T02:28:29;12.70;99.90
25753;DHT22;13600;50.816;4.416;2023-03-13T02:30:58;12.70;99.90
25753;DHT22;13600;50.816;4.416;2023-03-13T02:33:31;12.70;99.90
25753;DHT22;13600;50.816;4.416;2023-03-13T02:35:59;12.70;99.90
25753;DHT22;13600;50.816;4.416;2023-03-13T02:38:26;12.90;99.90
25753;DHT22;13600;50.816;4.416;2023-03-13T02:40:52;12.80;99.90
25753;DHT22;13600;50.816;4.416;2023-03-13T02:43:21;12.80;99.90
25753;DHT22;13600;50.816;4.416;2023-03-13T02:46:06;12.90;99.90
25753;DHT22;13600;50.816;4.416;2023-03-13T02:48:44;12.90;99.90
25753;DHT22;13600;50.816;4.416;2023-03-13T02:51:18;12.90;99.90
25753;DHT22;13600;50.816;4.416;2023-03-13T02:53:45;12.90;99.90
25753;DHT22;13600;50.816;4.416;2023-03-13T02:56:11;12.90;99.90
25753;DHT22;13600;50.816;4.416;2023-03-13T02:58:40;12.90;99.90
25753;DHT22;13600;50.816;4.416;2023-03-13T03:01:06;13.10;99.90
25753;DHT22;13600;50.816;4.416;2023-03-13T03:03:32;13.10;99.90
25753;DHT22;13600;50.816;4.416;2023-03-13T03:05:59;13.10;99.90
25753;DHT22;13600;50.816;4.416;2023-03-13T03:08:25;13.10;99.90
25753;DHT22;13600;50.816;4.416;2023-03-13T03:10:51;13.10;99.90
25753;DHT22;13600;50.816;4.416;2023-03-13T03:13:17;13.10;99.90
25753;DHT22;13600;50.816;4.416;2023-03-13T03:15:42;13.20;99.90
25753;DHT22;13600;50.816;4.416;2023-03-13T03:18:08;13.20;99.90
25753;DHT22;13600;50.816;4.416;2023-03-13T03:20:33;13.30;99.90
25753;DHT22;13600;50.816;4.416;2023-03-13T03:22:59;13.40;99.90
25753;DHT22;13600;50.816;4.416;2023-03-13T03:25:24;13.40;99.90
25753;DHT22;13600;50.816;4.416;2023-03-13T03:27:50;13.40;99.90
25753;DHT22;13600;50.816;4.416;2023-03-13T03:30:15;13.40;99.90
25753;DHT22;13600;50.816;4.416;2023-03-13T03:32:41;13.40;99.90
25753;DHT22;13600;50.816;4.416;2023-03-13T03:35:07;13.60;99.90
25753;DHT22;13600;50.816;4.416;2023-03-13T03:37:32;13.50;99.90
25753;DHT22;13600;50.816;4.416;2023-03-13T03:39:58;13.60;99.90
25753;DHT22;13600;50.816;4.416;2023-03-13T03:42:24;13.50;99.90
25753;DHT22;13600;50.816;4.416;2023-03-13T03:44:49;13.40;99.90
25753;DHT22;13600;50.816;4.416;2023-03-13T03:47:15;13.40;99.90
25753;DHT22;13600;50.816;4.416;2023-03-13T03:49:40;13.40;99.90
25753;DHT22;13600;50.816;4.416;2023-03-13T03:52:06;13.40;99.90
25753;DHT22;13600;50.816;4.416;2023-03-13T03:54:32;13.50;99.90
25753;DHT22;13600;50.816;4.416;2023-03-13T03:56:57;13.50;99.90
25753;DHT22;13600;50.816;4.416;2023-03-13T03:59:23;13.50;99.90
25753;DHT22;13600;50.816;4.416;2023-03-13T04:01:49;13.50;99.90
25753;DHT22;13600;50.816;4.416;2023-03-13T04:04:15;13.60;99.90
25753;DHT22;13600;50.816;4.416;2023-03-13T04:06:40;13.60;99.90
25753;DHT22;13600;50.816;4.416;2023-03-13T04:09:06;13.60;99.90
25753;DHT22;13600;50.816;4.416;2023-03-13T04:11:32;13.70;99.90
25753;DHT22;13600;50.816;4.416;2023-03-13T04:13:57;13.70;99.90
25753;DHT22;13600;50.816;4.416;2023-03-13T04:16:23;13.70;99.90
25753;DHT22;13600;50.816;4.416;2023-03-13T04:18:48;13.80;99.90
25753;DHT22;13600;50.816;4.416;2023-03-13T04:21:14;13.80;99.90
25753;DHT22;13600;50.816;4.416;2023-03-13T04:23:39;13.80;99.90
25753;DHT22;13600;50.816;4.416;2023-03-13T04:26:05;13.80;99.90
25753;DHT22;13600;50.816;4.416;2023-03-13T04:28:30;13.80;99.90
25753;DHT22;13600;50.816;4.416;2023-03-13T04:30:56;13.80;99.90
25753;DHT22;13600;50.816;4.416;2023-03-13T04:33:23;13.70;99.90
25753;DHT22;13600;50.816;4.416;2023-03-13T04:35:49;13.80;99.90
25753;DHT22;13600;50.816;4.416;2023-03-13T04:38:15;13.70;99.90
25753;DHT22;13600;50.816;4.416;2023-03-13T04:40:40;13.80;99.90
25753;DHT22;13600;50.816;4.416;2023-03-13T04:43:07;13.80;99.90
25753;DHT22;13600;50.816;4.416;2023-03-13T04:45:36;13.80;99.90
25753;DHT22;13600;50.816;4.416;2023-03-13T04:48:01;13.70;99.90
25753;DHT22;13600;50.816;4.416;2023-03-13T04:50:28;13.80;99.90
25753;DHT22;13600;50.816;4.416;2023-03-13T04:52:53;13.80;99.90
25753;DHT22;13600;50.816;4.416;2023-03-13T04:55:19;13.80;99.90
25753;DHT22;13600;50.816;4.416;2023-03-13T04:57:45;13.80;99.90
25753;DHT22;13600;50.816;4.416;2023-03-13T05:00:10;13.90;99.90
25753;DHT22;13600;50.816;4.416;2023-03-13T05:02:36;13.90;99.90
25753;DHT22;13600;50.816;4.416;2023-03-13T05:05:01;13.90;99.90
25753;DHT22;13600;50.816;4.416;2023-03-13T05:07:27;13.80;99.90
25753;DHT22;13600;50.816;4.416;2023-03-13T05:09:53;13.90;99.90
25753;DHT22;13600;50.816;4.416;2023-03-13T05:12:18;13.80;99.90
25753;DHT22;13600;50.816;4.416;2023-03-13T05:14:44;13.80;99.90
25753;DHT22;13600;50.816;4.416;2023-03-13T05:17:09;13.80;99.90
25753;DHT22;13600;50.816;4.416;2023-03-13T05:19:36;13.90;99.90
25753;DHT22;13600;50.816;4.416;2023-03-13T05:22:02;13.80;99.90
25753;DHT22;13600;50.816;4.416;2023-03-13T05:24:27;13.90;99.90
25753;DHT22;13600;50.816;4.416;2023-03-13T05:26:53;13.90;99.90
25753;DHT22;13600;50.816;4.416;2023-03-13T05:29:18;13.90;99.90
25753;DHT22;13600;50.816;4.416;2023-03-13T05:31:44;13.90;99.90
25753;DHT22;13600;50.816;4.416;2023-03-13T05:34:09;13.90;99.90
25753;DHT22;13600;50.816;4.416;2023-03-13T05:36:35;13.90;99.90
25753;DHT22;13600;50.816;4.416;2023-03-13T05:39:01;14.00;99.90
25753;DHT22;13600;50.816;4.416;2023-03-13T05:41:27;14.00;99.90
25753;DHT22;13600;50.816;4.416;2023-03-13T05:43:52;14.00;99.90
25753;DHT22;13600;50.816;4.416;2023-03-13T05:46:18;13.90;99.90
25753;DHT22;13600;50.816;4.416;2023-03-13T05:48:43;14.00;99.90
25753;DHT22;13600;50.816;4.416;2023-03-13T05:51:09;14.00;99.90
25753;DHT22;13600;50.816;4.416;2023-03-13T05:53:35;14.00;99.90
25753;DHT22;13600;50.816;4.416;2023-03-13T05:56:01;14.00;99.90
25753;DHT22;13600;50.816;4.416;2023-03-13T05:58:26;14.00;99.90
25753;DHT22;13600;50.816;4.416;2023-03-13T06:00:52;13.90;99.90
25753;DHT22;13600;50.816;4.416;2023-03-13T06:03:17;13.90;99.90
25753;DHT22;13600;50.816;4.416;2023-03-13T06:05:44;14.00;99.90
25753;DHT22;13600;50.816;4.416;2023-03-13T06:08:10;14.00;99.90
25753;DHT22;13600;50.816;4.416;2023-03-13T06:10:35;14.10;99.90
25753;DHT22;13600;50.816;4.416;2023-03-13T06:13:01;14.20;99.90
25753;DHT22;13600;50.816;4.416;2023-03-13T06:15:26;14.10;99.90
25753;DHT22;13600;50.816;4.416;2023-03-13T06:17:52;14.10;99.90
25753;DHT22;13600;50.816;4.416;2023-03-13T06:20:17;14.00;99.90
25753;DHT22;13600;50.816;4.416;2023-03-13T06:22:43;14.00;99.90
25753;DHT22;13600;50.816;4.416;2023-03-13T06:25:09;14.00;99.90
25753;DHT22;13600;50.816;4.416;2023-03-13T06:27:34;14.10;99.90
25753;DHT22;13600;50.816;4.416;2023-03-13T06:30:00;14.20;99.90
25753;DHT22;13600;50.816;4.416;2023-03-13T06:32:26;14.10;99.90
25753;DHT22;13600;50.816;4.416;2023-03-13T06:34:52;14.10;99.90
25753;DHT22;13600;50.816;4.416;2023-03-13T06:37:17;14.10;99.90
25753;DHT22;13600;50.816;4.416;2023-03-13T06:39:43;14.10;99.90
25753;DHT22;13600;50.816;4.416;2023-03-13T06:42:08;14.20;99.90
25753;DHT22;13600;50.816;4.416;2023-03-13T06:44:34;14.10;99.90
25753;DHT22;13600;50.816;4.416;2023-03-13T06:47:00;14.10;99.90
25753;DHT22;13600;50.816;4.416;2023-03-13T06:49:26;14.10;99.90
25753;DHT22;13600;50.816;4.416;2023-03-13T06:51:52;14.20;99.90
25753;DHT22;13600;50.816;4.416;2023-03-13T06:54:17;14.30;99.90
25753;DHT22;13600;50.816;4.416;2023-03-13T06:56:44;14.30;99.90
25753;DHT22;13600;50.816;4.416;2023-03-13T06:59:10;14.20;99.90
25753;DHT22;13600;50.816;4.416;2023-03-13T07:01:35;14.30;99.90
25753;DHT22;13600;50.816;4.416;2023-03-13T07:04:01;14.20;99.90
25753;DHT22;13600;50.816;4.416;2023-03-13T07:06:27;14.30;99.90
25753;DHT22;13600;50.816;4.416;2023-03-13T07:08:53;14.20;99.90
25753;DHT22;13600;50.816;4.416;2023-03-13T07:11:18;14.30;99.90
25753;DHT22;13600;50.816;4.416;2023-03-13T07:13:44;14.40;99.90
25753;DHT22;13600;50.816;4.416;2023-03-13T07:16:11;14.40;99.90
25753;DHT22;13600;50.816;4.416;2023-03-13T07:18:37;14.40;99.90
25753;DHT22;13600;50.816;4.416;2023-03-13T07:21:06;14.50;99.90
25753;DHT22;13600;50.816;4.416;2023-03-13T07:23:32;14.50;99.90
25753;DHT22;13600;50.816;4.416;2023-03-13T07:25:59;14.60;99.90
25753;DHT22;13600;50.816;4.416;2023-03-13T07:28:25;14.50;99.90
25753;DHT22;13600;50.816;4.416;2023-03-13T07:30:51;14.50;99.90
25753;DHT22;13600;50.816;4.416;2023-03-13T07:33:17;14.60;99.90
25753;DHT22;13600;50.816;4.416;2023-03-13T07:35:51;14.60;99.90
25753;DHT22;13600;50.816;4.416;2023-03-13T07:38:17;14.60;99.90
25753;DHT22;13600;50.816;4.416;2023-03-13T07:40:50;14.70;99.90
25753;DHT22;13600;50.816;4.416;2023-03-13T07:43:16;14.70;99.90
25753;DHT22;13600;50.816;4.416;2023-03-13T07:48:32;14.70;99.90
25753;DHT22;13600;50.816;4.416;2023-03-13T07:50:58;14.60;99.90
25753;DHT22;13600;50.816;4.416;2023-03-13T07:53:24;14.70;99.90
25753;DHT22;13600;50.816;4.416;2023-03-13T07:55:51;14.50;99.90
25753;DHT22;13600;50.816;4.416;2023-03-13T07:58:16;14.50;99.90
25753;DHT22;13600;50.816;4.416;2023-03-13T08:00:42;14.50;99.90
25753;DHT22;13600;50.816;4.416;2023-03-13T08:03:08;14.50;99.90
25753;DHT22;13600;50.816;4.416;2023-03-13T08:05:34;14.40;99.90
25753;DHT22;13600;50.816;4.416;2023-03-13T08:08:00;14.30;99.90
25753;DHT22;13600;50.816;4.416;2023-03-13T08:10:26;14.40;99.90
25753;DHT22;13600;50.816;4.416;2023-03-13T08:12:51;14.40;99.90
25753;DHT22;13600;50.816;4.416;2023-03-13T08:15:17;14.50;99.90
25753;DHT22;13600;50.816;4.416;2023-03-13T08:17:48;14.60;99.90
25753;DHT22;13600;50.816;4.416;2023-03-13T08:20:13;14.80;99.90
25753;DHT22;13600;50.816;4.416;2023-03-13T08:22:39;14.90;99.90
25753;DHT22;13600;50.816;4.416;2023-03-13T08:25:04;15.10;99.90
25753;DHT22;13600;50.816;4.416;2023-03-13T08:27:30;15.30;99.90
25753;DHT22;13600;50.816;4.416;2023-03-13T08:29:56;15.50;99.90
25753;DHT22;13600;50.816;4.416;2023-03-13T08:32:21;15.40;99.90
25753;DHT22;13600;50.816;4.416;2023-03-13T08:34:47;15.40;99.90
25753;DHT22;13600;50.816;4.416;2023-03-13T08:37:15;15.40;99.90
25753;DHT22;13600;50.816;4.416;2023-03-13T08:39:41;15.30;99.90
25753;DHT22;13600;50.816;4.416;2023-03-13T08:42:10;15.30;99.90
25753;DHT22;13600;50.816;4.416;2023-03-13T08:44:36;15.20;99.90
25753;DHT22;13600;50.816;4.416;2023-03-13T08:47:01;15.40;99.90
25753;DHT22;13600;50.816;4.416;2023-03-13T08:49:29;15.60;99.90
25753;DHT22;13600;50.816;4.416;2023-03-13T08:51:55;15.90;99.90
25753;DHT22;13600;50.816;4.416;2023-03-13T08:54:21;15.90;99.90
25753;DHT22;13600;50.816;4.416;2023-03-13T08:56:46;16.10;99.90
25753;DHT22;13600;50.816;4.416;2023-03-13T08:59:13;16.30;99.90
25753;DHT22;13600;50.816;4.416;2023-03-13T09:01:40;16.40;99.90
25753;DHT22;13600;50.816;4.416;2023-03-13T09:04:06;16.30;99.90
25753;DHT22;13600;50.816;4.416;2023-03-13T09:06:35;16.10;99.90
25753;DHT22;13600;50.816;4.416;2023-03-13T09:09:02;16.00;99.90
25753;DHT22;13600;50.816;4.416;2023-03-13T09:11:27;15.90;99.90
25753;DHT22;13600;50.816;4.416;2023-03-13T09:13:54;16.00;99.90
25753;DHT22;13600;50.816;4.416;2023-03-13T09:16:20;15.90;99.90
25753;DHT22;13600;50.816;4.416;2023-03-13T09:18:46;15.90;99.90
25753;DHT22;13600;50.816;4.416;2023-03-13T09:21:13;16.10;99.90
25753;DHT22;13600;50.816;4.416;2023-03-13T09:23:39;16.70;99.90
25753;DHT22;13600;50.816;4.416;2023-03-13T09:26:05;17.30;99.90
25753;DHT22;13600;50.816;4.416;2023-03-13T09:28:31;17.60;99.90
25753;DHT22;13600;50.816;4.416;2023-03-13T09:31:07;17.40;99.90
25753;DHT22;13600;50.816;4.416;2023-03-13T09:33:33;18.10;99.90
25753;DHT22;13600;50.816;4.416;2023-03-13T09:35:59;18.60;99.90
25753;DHT22;13600;50.816;4.416;2023-03-13T09:38:24;18.40;99.90
25753;DHT22;13600;50.816;4.416;2023-03-13T09:40:51;17.90;99.90
25753;DHT22;13600;50.816;4.416;2023-03-13T09:45:43;17.40;99.90
25753;DHT22;13600;50.816;4.416;2023-03-13T09:48:32;17.20;99.90
25753;DHT22;13600;50.816;4.416;2023-03-13T09:50:59;17.20;99.90
25753;DHT22;13600;50.816;4.416;2023-03-13T09:53:33;18.00;99.90
25753;DHT22;13600;50.816;4.416;2023-03-13T09:56:02;19.70;99.90
25753;DHT22;13600;50.816;4.416;2023-03-13T09:58:29;19.90;99.90
25753;DHT22;13600;50.816;4.416;2023-03-13T10:00:56;19.50;99.90
25753;DHT22;13600;50.816;4.416;2023-03-13T10:03:26;19.20;99.90
25753;DHT22;13600;50.816;4.416;2023-03-13T10:06:03;19.20;99.90
25753;DHT22;13600;50.816;4.416;2023-03-13T10:08:30;19.00;99.90
25753;DHT22;13600;50.816;4.416;2023-03-13T10:16:34;21.00;99.90
25753;DHT22;13600;50.816;4.416;2023-03-13T10:18:57;22.50;99.90
25753;DHT22;13600;50.816;4.416;2023-03-13T10:21:31;21.80;99.90
25753;DHT22;13600;50.816;4.416;2023-03-13T10:24:18;20.60;99.90
25753;DHT22;13600;50.816;4.416;2023-03-13T10:26:46;20.90;99.90
25753;DHT22;13600;50.816;4.416;2023-03-13T10:31:37;19.20;99.90
25753;DHT22;13600;50.816;4.416;2023-03-13T10:34:10;18.40;99.90
25753;DHT22;13600;50.816;4.416;2023-03-13T10:36:46;18.10;99.90
25753;DHT22;13600;50.816;4.416;2023-03-13T10:39:14;18.10;99.90
25753;DHT22;13600;50.816;4.416;2023-03-13T10:41:40;18.00;99.90
25753;DHT22;13600;50.816;4.416;2023-03-13T10:44:14;18.10;99.90
25753;DHT22;13600;50.816;4.416;2023-03-13T10:46:42;18.10;99.90
25753;DHT22;13600;50.816;4.416;2023-03-13T10:49:12;19.50;99.90
25753;DHT22;13600;50.816;4.416;2023-03-13T10:51:39;21.40;99.90
25753;DHT22;13600;50.816;4.416;2023-03-13T10:54:15;22.20;99.90
25753;DHT22;13600;50.816;4.416;2023-03-13T10:56:46;23.10;99.90
25753;DHT22;13600;50.816;4.416;2023-03-13T10:59:22;24.20;99.90
25753;DHT22;13600;50.816;4.416;2023-03-13T11:01:48;24.80;99.90
25753;DHT22;13600;50.816;4.416;2023-03-13T11:04:19;24.10;99.90
25753;DHT22;13600;50.816;4.416;2023-03-13T11:06:51;24.60;99.90
25753;DHT22;13600;50.816;4.416;2023-03-13T11:09:23;26.00;99.90
25753;DHT22;13600;50.816;4.416;2023-03-13T11:12:13;25.70;99.90
25753;DHT22;13600;50.816;4.416;2023-03-13T11:14:41;24.70;99.90
25753;DHT22;13600;50.816;4.416;2023-03-13T11:19:43;22.20;99.90
25753;DHT22;13600;50.816;4.416;2023-03-13T11:22:18;21.60;99.90
25753;DHT22;13600;50.816;4.416;2023-03-13T11:27:18;23.60;99.90
25753;DHT22;13600;50.816;4.416;2023-03-13T11:32:36;24.20;99.90
25753;DHT22;13600;50.816;4.416;2023-03-13T11:35:05;23.40;99.90
25753;DHT22;13600;50.816;4.416;2023-03-13T11:37:32;22.60;99.90
25753;DHT22;13600;50.816;4.416;2023-03-13T11:40:24;22.20;99.90
25753;DHT22;13600;50.816;4.416;2023-03-13T11:45:27;20.30;99.90
25753;DHT22;13600;50.816;4.416;2023-03-13T12:00:36;22.20;99.90
25753;DHT22;13600;50.816;4.416;2023-03-13T12:03:19;23.50;99.90
25753;DHT22;13600;50.816;4.416;2023-03-13T12:05:55;24.20;99.90
25753;DHT22;13600;50.816;4.416;2023-03-13T12:13:28;26.10;99.90
25753;DHT22;13600;50.816;4.416;2023-03-13T12:15:57;26.20;99.30
25753;DHT22;13600;50.816;4.416;2023-03-13T12:18:28;26.20;99.90
25753;DHT22;13600;50.816;4.416;2023-03-13T12:26:12;28.70;95.10
25753;DHT22;13600;50.816;4.416;2023-03-13T12:28:42;28.60;93.40
25753;DHT22;13600;50.816;4.416;2023-03-13T12:33:51;27.90;91.80
25753;DHT22;13600;50.816;4.416;2023-03-13T12:41:20;27.20;92.10
25753;DHT22;13600;50.816;4.416;2023-03-13T12:43:49;27.50;91.20
25753;DHT22;13600;50.816;4.416;2023-03-13T12:46:20;26.60;91.10
25753;DHT22;13600;50.816;4.416;2023-03-13T12:51:36;26.10;91.40
25753;DHT22;13600;50.816;4.416;2023-03-13T12:56:52;27.10;92.00
25753;DHT22;13600;50.816;4.416;2023-03-13T12:59:21;26.20;91.60
25753;DHT22;13600;50.816;4.416;2023-03-13T13:01:48;26.90;91.70
25753;DHT22;13600;50.816;4.416;2023-03-13T13:04:19;27.30;90.30
25753;DHT22;13600;50.816;4.416;2023-03-13T13:06:50;27.00;91.10
25753;DHT22;13600;50.816;4.416;2023-03-13T13:09:26;25.60;92.50
25753;DHT22;13600;50.816;4.416;2023-03-13T13:11:53;24.70;95.00
25753;DHT22;13600;50.816;4.416;2023-03-13T13:16:50;23.70;98.60
25753;DHT22;13600;50.816;4.416;2023-03-13T13:21:45;23.50;97.30
25753;DHT22;13600;50.816;4.416;2023-03-13T13:26:55;22.40;99.70
25753;DHT22;13600;50.816;4.416;2023-03-13T13:36:59;22.30;99.90
25753;DHT22;13600;50.816;4.416;2023-03-13T13:39:31;22.50;99.90
25753;DHT22;13600;50.816;4.416;2023-03-13T13:41:59;22.60;98.00
25753;DHT22;13600;50.816;4.416;2023-03-13T13:44:26;21.90;98.50
25753;DHT22;13600;50.816;4.416;2023-03-13T13:46:52;21.80;99.20
25753;DHT22;13600;50.816;4.416;2023-03-13T13:49:20;21.80;99.40
25753;DHT22;13600;50.816;4.416;2023-03-13T13:54:31;22.10;99.40
25753;DHT22;13600;50.816;4.416;2023-03-13T13:57:07;23.40;96.90
25753;DHT22;13600;50.816;4.416;2023-03-13T13:59:42;24.50;94.90
25753;DHT22;13600;50.816;4.416;2023-03-13T14:04:41;25.70;92.30
25753;DHT22;13600;50.816;4.416;2023-03-13T14:07:14;26.10;90.60
25753;DHT22;13600;50.816;4.416;2023-03-13T14:09:57;26.70;89.20
25753;DHT22;13600;50.816;4.416;2023-03-13T14:12:31;27.40;85.30
25753;DHT22;13600;50.816;4.416;2023-03-13T14:15:17;26.10;85.90
25753;DHT22;13600;50.816;4.416;2023-03-13T14:17:45;25.20;90.10
25753;DHT22;13600;50.816;4.416;2023-03-13T14:20:31;25.10;90.30
25753;DHT22;13600;50.816;4.416;2023-03-13T14:22:58;25.10;89.80
25753;DHT22;13600;50.816;4.416;2023-03-13T14:25:25;24.40;91.00
25753;DHT22;13600;50.816;4.416;2023-03-13T14:27:51;24.60;91.40
25753;DHT22;13600;50.816;4.416;2023-03-13T14:30:18;25.20;91.30
25753;DHT22;13600;50.816;4.416;2023-03-13T14:32:46;25.70;91.20
25753;DHT22;13600;50.816;4.416;2023-03-13T14:35:15;26.40;90.80
25753;DHT22;13600;50.816;4.416;2023-03-13T14:37:46;26.40;88.30
25753;DHT22;13600;50.816;4.416;2023-03-13T14:42:47;25.00;88.50
25753;DHT22;13600;50.816;4.416;2023-03-13T14:45:15;25.20;90.20
25753;DHT22;13600;50.816;4.416;2023-03-13T14:47:44;25.30;88.50
25753;DHT22;13600;50.816;4.416;2023-03-13T14:50:12;26.20;86.20
25753;DHT22;13600;50.816;4.416;2023-03-13T14:52:46;25.60;84.50
25753;DHT22;13600;50.816;4.416;2023-03-13T15:00:40;25.80;83.90
25753;DHT22;13600;50.816;4.416;2023-03-13T15:08:25;25.20;86.90
25753;DHT22;13600;50.816;4.416;2023-03-13T15:10:52;25.10;87.50
25753;DHT22;13600;50.816;4.416;2023-03-13T15:15:58;25.00;87.30
25753;DHT22;13600;50.816;4.416;2023-03-13T15:18:26;24.60;87.50
25753;DHT22;13600;50.816;4.416;2023-03-13T15:20:53;23.50;89.00
25753;DHT22;13600;50.816;4.416;2023-03-13T15:23:19;23.20;91.20
25753;DHT22;13600;50.816;4.416;2023-03-13T15:25:45;23.90;90.40
25753;DHT22;13600;50.816;4.416;2023-03-13T15:28:20;23.80;90.20
25753;DHT22;13600;50.816;4.416;2023-03-13T15:30:47;23.30;90.20
25753;DHT22;13600;50.816;4.416;2023-03-13T15:33:13;22.90;91.00
25753;DHT22;13600;50.816;4.416;2023-03-13T15:35:40;22.20;92.00
25753;DHT22;13600;50.816;4.416;2023-03-13T15:38:08;21.90;93.00
25753;DHT22;13600;50.816;4.416;2023-03-13T15:40:35;22.20;92.70
25753;DHT22;13600;50.816;4.416;2023-03-13T15:43:00;22.70;91.90
25753;DHT22;13600;50.816;4.416;2023-03-13T15:45:26;23.30;91.60
25753;DHT22;13600;50.816;4.416;2023-03-13T15:47:52;23.80;90.10
25753;DHT22;13600;50.816;4.416;2023-03-13T15:50:18;23.20;89.60
25753;DHT22;13600;50.816;4.416;2023-03-13T15:52:44;22.80;90.40
25753;DHT22;13600;50.816;4.416;2023-03-13T15:55:10;22.80;91.00
25753;DHT22;13600;50.816;4.416;2023-03-13T15:57:37;22.40;90.90
25753;DHT22;13600;50.816;4.416;2023-03-13T16:00:06;22.00;91.70
25753;DHT22;13600;50.816;4.416;2023-03-13T16:02:32;21.80;92.40
25753;DHT22;13600;50.816;4.416;2023-03-13T16:04:57;21.80;92.90
25753;DHT22;13600;50.816;4.416;2023-03-13T16:07:23;21.80;93.20
25753;DHT22;13600;50.816;4.416;2023-03-13T16:09:49;21.60;93.40
25753;DHT22;13600;50.816;4.416;2023-03-13T16:12:15;21.10;94.40
25753;DHT22;13600;50.816;4.416;2023-03-13T16:14:40;21.00;95.50
25753;DHT22;13600;50.816;4.416;2023-03-13T16:17:13;20.80;96.10
25753;DHT22;13600;50.816;4.416;2023-03-13T16:19:39;20.50;96.40
25753;DHT22;13600;50.816;4.416;2023-03-13T16:22:05;20.10;97.80
25753;DHT22;13600;50.816;4.416;2023-03-13T16:24:30;19.80;98.70
25753;DHT22;13600;50.816;4.416;2023-03-13T16:26:56;19.70;99.90
25753;DHT22;13600;50.816;4.416;2023-03-13T16:29:21;19.80;99.90
25753;DHT22;13600;50.816;4.416;2023-03-13T16:31:47;19.80;99.90
25753;DHT22;13600;50.816;4.416;2023-03-13T16:34:13;19.70;99.90
25753;DHT22;13600;50.816;4.416;2023-03-13T16:36:38;19.60;99.90
25753;DHT22;13600;50.816;4.416;2023-03-13T16:39:04;19.50;99.90
25753;DHT22;13600;50.816;4.416;2023-03-13T16:41:33;19.00;99.90
25753;DHT22;13600;50.816;4.416;2023-03-13T16:43:59;18.90;99.90
25753;DHT22;13600;50.816;4.416;2023-03-13T16:46:31;18.80;99.90
25753;DHT22;13600;50.816;4.416;2023-03-13T16:48:59;18.90;99.90
25753;DHT22;13600;50.816;4.416;2023-03-13T16:51:25;18.80;99.90
25753;DHT22;13600;50.816;4.416;2023-03-13T16:53:52;18.80;99.90
25753;DHT22;13600;50.816;4.416;2023-03-13T16:56:25;18.60;99.90
25753;DHT22;13600;50.816;4.416;2023-03-13T16:58:54;18.50;99.90
25753;DHT22;13600;50.816;4.416;2023-03-13T17:01:20;18.20;99.90
25753;DHT22;13600;50.816;4.416;2023-03-13T17:03:47;18.20;99.90
25753;DHT22;13600;50.816;4.416;2023-03-13T17:06:19;18.10;99.90
25753;DHT22;13600;50.816;4.416;2023-03-13T17:08:45;18.10;99.90
25753;DHT22;13600;50.816;4.416;2023-03-13T17:11:12;18.00;99.90
25753;DHT22;13600;50.816;4.416;2023-03-13T17:13:43;18.00;99.90
25753;DHT22;13600;50.816;4.416;2023-03-13T17:16:10;17.90;99.90